sensor_id;sensor_type;location;lat;lon;timestamp;P1;durP1;ratioP1;P2;durP2;ratioP2
23155;SDS011;11746;50.876;4.246;2024-01-06T00:00:46;7.82;;;3.08;;
23155;SDS011;11746;50.876;4.246;2024-01-06T00:03:16;7.13;;;2.65;;
23155;SDS011;11746;50.876;4.246;2024-01-06T00:05:42;4.75;;;2.67;;
23155;SDS011;11746;50.876;4.246;2024-01-06T00:08:10;7.72;;;2.90;;
23155;SDS011;11746;50.876;4.246;2024-01-06T00:10:35;6.15;;;2.92;;
23155;SDS011;11746;50.876;4.246;2024-01-06T00:13:01;5.95;;;2.90;;
23155;SDS011;11746;50.876;4.246;2024-01-06T00:15:29;4.30;;;2.95;;
23155;SDS011;11746;50.876;4.246;2024-01-06T00:17:54;4.72;;;2.60;;
23155;SDS011;11746;50.876;4.246;2024-01-06T00:20:22;6.50;;;3.00;;
23155;SDS011;11746;50.876;4.246;2024-01-06T00:22:48;6.68;;;3.08;;
23155;SDS011;11746;50.876;4.246;2024-01-06T00:25:16;5.20;;;2.70;;
23155;SDS011;11746;50.876;4.246;2024-01-06T00:27:42;4.28;;;2.47;;
23155;SDS011;11746;50.876;4.246;2024-01-06T00:30:07;6.82;;;2.58;;
23155;SDS011;11746;50.876;4.246;2024-01-06T00:32:35;3.58;;;2.22;;
23155;SDS011;11746;50.876;4.246;2024-01-06T00:35:03;8.45;;;2.90;;
23155;SDS011;11746;50.876;4.246;2024-01-06T00:37:34;5.28;;;2.83;;
23155;SDS011;11746;50.876;4.246;2024-01-06T00:40:00;4.78;;;2.58;;
23155;SDS011;11746;50.876;4.246;2024-01-06T00:42:29;6.57;;;3.05;;
23155;SDS011;11746;50.876;4.246;2024-01-06T00:44:57;6.05;;;2.88;;
23155;SDS011;11746;50.876;4.246;2024-01-06T00:47:25;4.82;;;2.50;;
23155;SDS011;11746;50.876;4.246;2024-01-06T00:49:53;6.82;;;3.30;;
23155;SDS011;11746;50.876;4.246;2024-01-06T00:52:21;7.47;;;2.88;;
23155;SDS011;11746;50.876;4.246;2024-01-06T00:54:46;6.30;;;2.95;;
23155;SDS011;11746;50.876;4.246;2024-01-06T00:57:12;7.00;;;3.15;;
23155;SDS011;11746;50.876;4.246;2024-01-06T00:59:38;6.53;;;3.17;;
23155;SDS011;11746;50.876;4.246;2024-01-06T01:02:03;7.53;;;3.28;;
23155;SDS011;11746;50.876;4.246;2024-01-06T01:04:29;7.00;;;3.03;;
23155;SDS011;11746;50.876;4.246;2024-01-06T01:06:57;8.85;;;4.03;;
23155;SDS011;11746;50.876;4.246;2024-01-06T01:09:25;7.05;;;3.55;;
23155;SDS011;11746;50.876;4.246;2024-01-06T01:11:51;9.30;;;3.70;;
23155;SDS011;11746;50.876;4.246;2024-01-06T01:14:19;8.98;;;3.47;;
23155;SDS011;11746;50.876;4.246;2024-01-06T01:16:47;8.38;;;3.00;;
23155;SDS011;11746;50.876;4.246;2024-01-06T01:19:13;9.85;;;3.80;;
23155;SDS011;11746;50.876;4.246;2024-01-06T01:21:39;7.07;;;3.72;;
23155;SDS011;11746;50.876;4.246;2024-01-06T01:24:09;8.32;;;4.00;;
23155;SDS011;11746;50.876;4.246;2024-01-06T01:26:35;8.60;;;3.60;;
23155;SDS011;11746;50.876;4.246;2024-01-06T01:29:03;7.88;;;3.70;;
23155;SDS011;11746;50.876;4.246;2024-01-06T01:31:31;6.97;;;3.13;;
23155;SDS011;11746;50.876;4.246;2024-01-06T01:33:59;10.23;;;3.92;;
23155;SDS011;11746;50.876;4.246;2024-01-06T01:36:24;8.98;;;3.25;;
23155;SDS011;11746;50.876;4.246;2024-01-06T01:38:50;7.38;;;3.45;;
23155;SDS011;11746;50.876;4.246;2024-01-06T01:41:16;8.48;;;3.60;;
23155;SDS011;11746;50.876;4.246;2024-01-06T01:43:41;8.25;;;2.95;;
23155;SDS011;11746;50.876;4.246;2024-01-06T01:46:09;7.75;;;3.40;;
23155;SDS011;11746;50.876;4.246;2024-01-06T01:48:35;9.95;;;3.35;;
23155;SDS011;11746;50.876;4.246;2024-01-06T01:51:00;5.90;;;2.90;;
23155;SDS011;11746;50.876;4.246;2024-01-06T01:53:29;11.38;;;2.75;;
23155;SDS011;11746;50.876;4.246;2024-01-06T01:55:56;6.03;;;2.83;;
23155;SDS011;11746;50.876;4.246;2024-01-06T01:58:22;8.75;;;2.50;;
23155;SDS011;11746;50.876;4.246;2024-01-06T02:00:48;6.60;;;2.88;;
23155;SDS011;11746;50.876;4.246;2024-01-06T02:03:14;7.35;;;2.13;;
23155;SDS011;11746;50.876;4.246;2024-01-06T02:05:41;5.40;;;2.60;;
23155;SDS011;11746;50.876;4.246;2024-01-06T02:08:07;6.65;;;3.22;;
23155;SDS011;11746;50.876;4.246;2024-01-06T02:10:33;5.40;;;2.20;;
23155;SDS011;11746;50.876;4.246;2024-01-06T02:13:10;4.97;;;2.00;;
23155;SDS011;11746;50.876;4.246;2024-01-06T02:15:36;4.22;;;2.10;;
23155;SDS011;11746;50.876;4.246;2024-01-06T02:18:02;6.43;;;2.17;;
23155;SDS011;11746;50.876;4.246;2024-01-06T02:20:29;4.50;;;2.13;;
23155;SDS011;11746;50.876;4.246;2024-01-06T02:23:00;3.08;;;2.10;;
23155;SDS011;11746;50.876;4.246;2024-01-06T02:25:26;5.30;;;2.13;;
23155;SDS011;11746;50.876;4.246;2024-01-06T02:27:54;6.38;;;2.90;;
23155;SDS011;11746;50.876;4.246;2024-01-06T02:30:22;5.15;;;2.45;;
23155;SDS011;11746;50.876;4.246;2024-01-06T02:32:47;5.28;;;2.63;;
23155;SDS011;11746;50.876;4.246;2024-01-06T02:35:15;6.30;;;2.72;;
23155;SDS011;11746;50.876;4.246;2024-01-06T02:37:41;5.50;;;3.10;;
23155;SDS011;11746;50.876;4.246;2024-01-06T02:40:07;4.80;;;2.70;;
23155;SDS011;11746;50.876;4.246;2024-01-06T02:42:33;7.10;;;3.33;;
23155;SDS011;11746;50.876;4.246;2024-01-06T02:44:58;5.72;;;3.38;;
23155;SDS011;11746;50.876;4.246;2024-01-06T02:47:24;6.25;;;3.00;;
23155;SDS011;11746;50.876;4.246;2024-01-06T02:49:50;5.40;;;3.40;;
23155;SDS011;11746;50.876;4.246;2024-01-06T02:52:15;5.28;;;3.00;;
23155;SDS011;11746;50.876;4.246;2024-01-06T02:54:41;7.38;;;3.35;;
23155;SDS011;11746;50.876;4.246;2024-01-06T02:57:09;4.57;;;2.92;;
23155;SDS011;11746;50.876;4.246;2024-01-06T02:59:34;8.40;;;3.00;;
23155;SDS011;11746;50.876;4.246;2024-01-06T03:02:02;6.72;;;2.83;;
23155;SDS011;11746;50.876;4.246;2024-01-06T03:04:30;5.75;;;3.45;;
23155;SDS011;11746;50.876;4.246;2024-01-06T03:06:56;6.03;;;3.00;;
23155;SDS011;11746;50.876;4.246;2024-01-06T03:09:21;5.20;;;3.03;;
23155;SDS011;11746;50.876;4.246;2024-01-06T03:11:47;4.95;;;3.08;;
23155;SDS011;11746;50.876;4.246;2024-01-06T03:14:15;3.95;;;2.72;;
23155;SDS011;11746;50.876;4.246;2024-01-06T03:16:41;5.70;;;3.08;;
23155;SDS011;11746;50.876;4.246;2024-01-06T03:19:09;4.45;;;2.63;;
23155;SDS011;11746;50.876;4.246;2024-01-06T03:21:34;3.08;;;2.40;;
23155;SDS011;11746;50.876;4.246;2024-01-06T03:24:03;3.15;;;2.28;;
23155;SDS011;11746;50.876;4.246;2024-01-06T03:26:29;3.00;;;2.47;;
23155;SDS011;11746;50.876;4.246;2024-01-06T03:28:55;3.72;;;3.05;;
23155;SDS011;11746;50.876;4.246;2024-01-06T03:31:24;5.75;;;3.40;;
23155;SDS011;11746;50.876;4.246;2024-01-06T03:33:50;6.68;;;3.67;;
23155;SDS011;11746;50.876;4.246;2024-01-06T03:36:17;5.65;;;3.78;;
23155;SDS011;11746;50.876;4.246;2024-01-06T03:38:47;6.72;;;4.47;;
23155;SDS011;11746;50.876;4.246;2024-01-06T03:41:13;7.40;;;4.25;;
23155;SDS011;11746;50.876;4.246;2024-01-06T03:43:38;9.05;;;5.43;;
23155;SDS011;11746;50.876;4.246;2024-01-06T03:46:06;6.00;;;4.68;;
23155;SDS011;11746;50.876;4.246;2024-01-06T03:48:34;9.45;;;5.28;;
23155;SDS011;11746;50.876;4.246;2024-01-06T03:51:00;9.05;;;4.82;;
23155;SDS011;11746;50.876;4.246;2024-01-06T03:53:29;7.50;;;5.10;;
23155;SDS011;11746;50.876;4.246;2024-01-06T03:55:54;7.78;;;5.28;;
23155;SDS011;11746;50.876;4.246;2024-01-06T03:58:20;8.63;;;5.90;;
23155;SDS011;11746;50.876;4.246;2024-01-06T04:00:50;9.98;;;5.93;;
23155;SDS011;11746;50.876;4.246;2024-01-06T04:03:15;11.15;;;6.53;;
23155;SDS011;11746;50.876;4.246;2024-01-06T04:05:41;12.13;;;6.72;;
23155;SDS011;11746;50.876;4.246;2024-01-06T04:08:09;8.38;;;6.38;;
23155;SDS011;11746;50.876;4.246;2024-01-06T04:10:34;9.98;;;6.88;;
23155;SDS011;11746;50.876;4.246;2024-01-06T04:13:02;11.07;;;7.10;;
23155;SDS011;11746;50.876;4.246;2024-01-06T04:15:31;12.77;;;7.25;;
23155;SDS011;11746;50.876;4.246;2024-01-06T04:18:00;9.35;;;6.97;;
23155;SDS011;11746;50.876;4.246;2024-01-06T04:20:27;11.50;;;6.72;;
23155;SDS011;11746;50.876;4.246;2024-01-06T04:22:53;12.40;;;6.90;;
23155;SDS011;11746;50.876;4.246;2024-01-06T04:25:18;12.20;;;6.72;;
23155;SDS011;11746;50.876;4.246;2024-01-06T04:27:46;9.93;;;6.68;;
23155;SDS011;11746;50.876;4.246;2024-01-06T04:30:13;11.45;;;6.72;;
23155;SDS011;11746;50.876;4.246;2024-01-06T04:32:40;12.38;;;6.55;;
23155;SDS011;11746;50.876;4.246;2024-01-06T04:35:06;14.27;;;6.97;;
23155;SDS011;11746;50.876;4.246;2024-01-06T04:37:32;10.82;;;6.50;;
23155;SDS011;11746;50.876;4.246;2024-01-06T04:39:57;12.75;;;7.18;;
23155;SDS011;11746;50.876;4.246;2024-01-06T04:42:28;11.35;;;7.05;;
23155;SDS011;11746;50.876;4.246;2024-01-06T04:44:56;10.88;;;6.95;;
23155;SDS011;11746;50.876;4.246;2024-01-06T04:47:21;11.35;;;6.82;;
23155;SDS011;11746;50.876;4.246;2024-01-06T04:49:47;10.25;;;6.18;;
23155;SDS011;11746;50.876;4.246;2024-01-06T04:52:13;10.27;;;6.95;;
23155;SDS011;11746;50.876;4.246;2024-01-06T04:54:38;11.60;;;6.72;;
23155;SDS011;11746;50.876;4.246;2024-01-06T04:57:11;10.63;;;6.20;;
23155;SDS011;11746;50.876;4.246;2024-01-06T04:59:37;12.63;;;7.15;;
23155;SDS011;11746;50.876;4.246;2024-01-06T05:02:02;14.02;;;6.65;;
23155;SDS011;11746;50.876;4.246;2024-01-06T05:04:31;10.65;;;6.68;;
23155;SDS011;11746;50.876;4.246;2024-01-06T05:06:57;15.30;;;6.85;;
23155;SDS011;11746;50.876;4.246;2024-01-06T05:09:23;12.15;;;5.95;;
23155;SDS011;11746;50.876;4.246;2024-01-06T05:11:50;10.98;;;5.78;;
23155;SDS011;11746;50.876;4.246;2024-01-06T05:14:18;13.00;;;6.35;;
23155;SDS011;11746;50.876;4.246;2024-01-06T05:16:43;11.18;;;5.65;;
23155;SDS011;11746;50.876;4.246;2024-01-06T05:19:09;13.60;;;5.80;;
23155;SDS011;11746;50.876;4.246;2024-01-06T05:21:37;11.57;;;5.57;;
23155;SDS011;11746;50.876;4.246;2024-01-06T05:24:03;13.27;;;6.13;;
23155;SDS011;11746;50.876;4.246;2024-01-06T05:26:29;16.23;;;6.13;;
23155;SDS011;11746;50.876;4.246;2024-01-06T05:28:55;16.23;;;6.80;;
23155;SDS011;11746;50.876;4.246;2024-01-06T05:31:20;17.58;;;6.47;;
23155;SDS011;11746;50.876;4.246;2024-01-06T05:33:50;9.60;;;6.45;;
23155;SDS011;11746;50.876;4.246;2024-01-06T05:36:19;11.27;;;6.55;;
23155;SDS011;11746;50.876;4.246;2024-01-06T05:38:46;13.68;;;6.80;;
23155;SDS011;11746;50.876;4.246;2024-01-06T05:41:12;12.93;;;6.88;;
23155;SDS011;11746;50.876;4.246;2024-01-06T05:43:40;13.02;;;6.57;;
23155;SDS011;11746;50.876;4.246;2024-01-06T05:46:06;14.63;;;6.80;;
23155;SDS011;11746;50.876;4.246;2024-01-06T05:48:32;12.50;;;7.53;;
23155;SDS011;11746;50.876;4.246;2024-01-06T05:51:01;13.00;;;6.93;;
23155;SDS011;11746;50.876;4.246;2024-01-06T05:53:26;10.40;;;6.15;;
23155;SDS011;11746;50.876;4.246;2024-01-06T05:55:54;10.48;;;6.25;;
23155;SDS011;11746;50.876;4.246;2024-01-06T05:58:22;15.52;;;7.35;;
23155;SDS011;11746;50.876;4.246;2024-01-06T06:00:50;9.63;;;5.85;;
23155;SDS011;11746;50.876;4.246;2024-01-06T06:03:18;13.77;;;6.60;;
23155;SDS011;11746;50.876;4.246;2024-01-06T06:05:44;11.75;;;6.13;;
23155;SDS011;11746;50.876;4.246;2024-01-06T06:08:12;9.20;;;5.72;;
23155;SDS011;11746;50.876;4.246;2024-01-06T06:10:38;10.52;;;6.50;;
23155;SDS011;11746;50.876;4.246;2024-01-06T06:13:16;6.97;;;4.70;;
23155;SDS011;11746;50.876;4.246;2024-01-06T06:15:42;8.60;;;4.75;;
23155;SDS011;11746;50.876;4.246;2024-01-06T06:18:08;8.05;;;4.85;;
23155;SDS011;11746;50.876;4.246;2024-01-06T06:20:33;10.07;;;4.38;;
23155;SDS011;11746;50.876;4.246;2024-01-06T06:22:59;8.98;;;4.55;;
23155;SDS011;11746;50.876;4.246;2024-01-06T06:25:29;10.63;;;4.55;;
23155;SDS011;11746;50.876;4.246;2024-01-06T06:27:55;9.55;;;4.40;;
23155;SDS011;11746;50.876;4.246;2024-01-06T06:30:20;6.22;;;4.35;;
23155;SDS011;11746;50.876;4.246;2024-01-06T06:32:46;8.00;;;4.93;;
23155;SDS011;11746;50.876;4.246;2024-01-06T06:35:18;7.80;;;4.22;;
23155;SDS011;11746;50.876;4.246;2024-01-06T06:37:44;7.53;;;4.32;;
23155;SDS011;11746;50.876;4.246;2024-01-06T06:40:10;7.70;;;4.05;;
23155;SDS011;11746;50.876;4.246;2024-01-06T06:42:35;7.47;;;3.85;;
23155;SDS011;11746;50.876;4.246;2024-01-06T06:45:01;6.75;;;4.10;;
23155;SDS011;11746;50.876;4.246;2024-01-06T06:47:27;6.25;;;4.03;;
23155;SDS011;11746;50.876;4.246;2024-01-06T06:49:52;7.45;;;4.50;;
23155;SDS011;11746;50.876;4.246;2024-01-06T06:52:20;9.27;;;4.68;;
23155;SDS011;11746;50.876;4.246;2024-01-06T06:54:48;9.85;;;4.50;;
23155;SDS011;11746;50.876;4.246;2024-01-06T06:57:14;9.63;;;4.63;;
23155;SDS011;11746;50.876;4.246;2024-01-06T06:59:40;8.52;;;4.75;;
23155;SDS011;11746;50.876;4.246;2024-01-06T07:02:06;12.07;;;5.70;;
23155;SDS011;11746;50.876;4.246;2024-01-06T07:04:32;9.13;;;5.47;;
23155;SDS011;11746;50.876;4.246;2024-01-06T07:07:00;10.30;;;6.10;;
23155;SDS011;11746;50.876;4.246;2024-01-06T07:09:25;11.63;;;5.97;;
23155;SDS011;11746;50.876;4.246;2024-01-06T07:11:55;11.00;;;5.78;;
23155;SDS011;11746;50.876;4.246;2024-01-06T07:14:22;11.50;;;6.53;;
23155;SDS011;11746;50.876;4.246;2024-01-06T07:16:47;10.65;;;6.18;;
23155;SDS011;11746;50.876;4.246;2024-01-06T07:19:13;12.63;;;6.38;;
23155;SDS011;11746;50.876;4.246;2024-01-06T07:21:42;15.05;;;7.63;;
23155;SDS011;11746;50.876;4.246;2024-01-06T07:24:08;15.93;;;8.07;;
23155;SDS011;11746;50.876;4.246;2024-01-06T07:26:34;11.68;;;8.27;;
23155;SDS011;11746;50.876;4.246;2024-01-06T07:28:59;10.45;;;7.60;;
23155;SDS011;11746;50.876;4.246;2024-01-06T07:31:25;13.50;;;8.23;;
23155;SDS011;11746;50.876;4.246;2024-01-06T07:33:53;11.60;;;7.60;;
23155;SDS011;11746;50.876;4.246;2024-01-06T07:36:20;14.40;;;8.15;;
23155;SDS011;11746;50.876;4.246;2024-01-06T07:38:47;12.57;;;7.90;;
23155;SDS011;11746;50.876;4.246;2024-01-06T07:41:13;14.68;;;8.57;;
23155;SDS011;11746;50.876;4.246;2024-01-06T07:43:40;12.40;;;8.35;;
23155;SDS011;11746;50.876;4.246;2024-01-06T07:46:06;16.70;;;9.05;;
23155;SDS011;11746;50.876;4.246;2024-01-06T07:48:32;17.77;;;8.13;;
23155;SDS011;11746;50.876;4.246;2024-01-06T07:51:00;13.85;;;8.20;;
23155;SDS011;11746;50.876;4.246;2024-01-06T07:53:28;14.98;;;8.55;;
23155;SDS011;11746;50.876;4.246;2024-01-06T07:55:56;15.93;;;8.02;;
23155;SDS011;11746;50.876;4.246;2024-01-06T07:58:22;10.65;;;7.72;;
23155;SDS011;11746;50.876;4.246;2024-01-06T08:00:47;12.88;;;7.97;;
23155;SDS011;11746;50.876;4.246;2024-01-06T08:03:15;13.40;;;8.18;;
23155;SDS011;11746;50.876;4.246;2024-01-06T08:05:41;14.82;;;8.82;;
23155;SDS011;11746;50.876;4.246;2024-01-06T08:08:07;15.38;;;9.13;;
23155;SDS011;11746;50.876;4.246;2024-01-06T08:10:33;13.68;;;8.02;;
23155;SDS011;11746;50.876;4.246;2024-01-06T08:13:00;12.52;;;8.70;;
23155;SDS011;11746;50.876;4.246;2024-01-06T08:15:31;15.40;;;8.82;;
23155;SDS011;11746;50.876;4.246;2024-01-06T08:17:57;16.05;;;8.32;;
23155;SDS011;11746;50.876;4.246;2024-01-06T08:20:25;13.70;;;8.63;;
23155;SDS011;11746;50.876;4.246;2024-01-06T08:22:50;13.43;;;8.98;;
23155;SDS011;11746;50.876;4.246;2024-01-06T08:25:19;11.50;;;8.50;;
23155;SDS011;11746;50.876;4.246;2024-01-06T08:27:47;13.90;;;8.15;;
23155;SDS011;11746;50.876;4.246;2024-01-06T08:30:13;12.98;;;8.30;;
23155;SDS011;11746;50.876;4.246;2024-01-06T08:32:39;13.25;;;8.00;;
23155;SDS011;11746;50.876;4.246;2024-01-06T08:35:04;13.13;;;8.05;;
23155;SDS011;11746;50.876;4.246;2024-01-06T08:37:33;12.50;;;6.80;;
23155;SDS011;11746;50.876;4.246;2024-01-06T08:39:58;11.32;;;6.45;;
23155;SDS011;11746;50.876;4.246;2024-01-06T08:42:28;11.82;;;6.90;;
23155;SDS011;11746;50.876;4.246;2024-01-06T08:44:53;10.45;;;6.47;;
23155;SDS011;11746;50.876;4.246;2024-01-06T08:47:19;10.25;;;6.40;;
23155;SDS011;11746;50.876;4.246;2024-01-06T08:49:49;8.98;;;5.93;;
23155;SDS011;11746;50.876;4.246;2024-01-06T08:52:15;9.88;;;5.88;;
23155;SDS011;11746;50.876;4.246;2024-01-06T08:54:40;8.98;;;6.22;;
23155;SDS011;11746;50.876;4.246;2024-01-06T08:57:06;10.07;;;5.90;;
23155;SDS011;11746;50.876;4.246;2024-01-06T08:59:39;9.90;;;6.18;;
23155;SDS011;11746;50.876;4.246;2024-01-06T09:02:05;10.63;;;6.30;;
23155;SDS011;11746;50.876;4.246;2024-01-06T09:04:33;12.45;;;6.68;;
23155;SDS011;11746;50.876;4.246;2024-01-06T09:07:00;10.60;;;6.57;;
23155;SDS011;11746;50.876;4.246;2024-01-06T09:09:26;10.00;;;6.50;;
23155;SDS011;11746;50.876;4.246;2024-01-06T09:11:55;10.50;;;7.43;;
23155;SDS011;11746;50.876;4.246;2024-01-06T09:14:21;9.80;;;7.20;;
23155;SDS011;11746;50.876;4.246;2024-01-06T09:16:46;11.45;;;7.75;;
23155;SDS011;11746;50.876;4.246;2024-01-06T09:19:14;10.73;;;7.75;;
23155;SDS011;11746;50.876;4.246;2024-01-06T09:21:42;10.27;;;7.10;;
23155;SDS011;11746;50.876;4.246;2024-01-06T09:24:07;12.48;;;7.13;;
23155;SDS011;11746;50.876;4.246;2024-01-06T09:26:35;9.05;;;7.00;;
23155;SDS011;11746;50.876;4.246;2024-01-06T09:29:01;12.68;;;6.88;;
23155;SDS011;11746;50.876;4.246;2024-01-06T09:31:28;12.70;;;7.03;;
23155;SDS011;11746;50.876;4.246;2024-01-06T09:33:55;10.40;;;6.57;;
23155;SDS011;11746;50.876;4.246;2024-01-06T09:36:25;12.13;;;7.20;;
23155;SDS011;11746;50.876;4.246;2024-01-06T09:38:50;8.18;;;6.07;;
23155;SDS011;11746;50.876;4.246;2024-01-06T09:41:18;9.02;;;6.03;;
23155;SDS011;11746;50.876;4.246;2024-01-06T09:43:45;10.15;;;6.90;;
23155;SDS011;11746;50.876;4.246;2024-01-06T09:46:29;9.80;;;6.38;;
23155;SDS011;11746;50.876;4.246;2024-01-06T09:48:58;7.93;;;5.75;;
23155;SDS011;11746;50.876;4.246;2024-01-06T09:51:24;7.10;;;5.20;;
23155;SDS011;11746;50.876;4.246;2024-01-06T09:53:58;7.70;;;5.43;;
23155;SDS011;11746;50.876;4.246;2024-01-06T09:56:26;9.25;;;6.50;;
23155;SDS011;11746;50.876;4.246;2024-01-06T09:58:55;9.43;;;5.10;;
23155;SDS011;11746;50.876;4.246;2024-01-06T10:01:24;8.70;;;5.18;;
23155;SDS011;11746;50.876;4.246;2024-01-06T10:03:50;7.30;;;5.25;;
23155;SDS011;11746;50.876;4.246;2024-01-06T10:06:16;7.97;;;5.35;;
23155;SDS011;11746;50.876;4.246;2024-01-06T10:08:51;9.55;;;5.45;;
23155;SDS011;11746;50.876;4.246;2024-01-06T10:11:21;8.20;;;5.30;;
23155;SDS011;11746;50.876;4.246;2024-01-06T10:13:50;9.73;;;5.55;;
23155;SDS011;11746;50.876;4.246;2024-01-06T10:16:16;8.68;;;5.32;;
23155;SDS011;11746;50.876;4.246;2024-01-06T10:18:41;9.63;;;5.43;;
23155;SDS011;11746;50.876;4.246;2024-01-06T10:21:09;7.28;;;5.72;;
23155;SDS011;11746;50.876;4.246;2024-01-06T10:23:35;10.82;;;5.70;;
23155;SDS011;11746;50.876;4.246;2024-01-06T10:26:03;10.38;;;6.25;;
23155;SDS011;11746;50.876;4.246;2024-01-06T10:28:29;9.27;;;6.10;;
23155;SDS011;11746;50.876;4.246;2024-01-06T10:30:55;9.20;;;5.97;;
23155;SDS011;11746;50.876;4.246;2024-01-06T10:33:22;7.68;;;5.82;;
23155;SDS011;11746;50.876;4.246;2024-01-06T10:35:54;9.13;;;6.00;;
23155;SDS011;11746;50.876;4.246;2024-01-06T10:38:28;7.22;;;5.72;;
23155;SDS011;11746;50.876;4.246;2024-01-06T10:41:01;7.85;;;5.93;;
23155;SDS011;11746;50.876;4.246;2024-01-06T10:43:35;8.85;;;6.30;;
23155;SDS011;11746;50.876;4.246;2024-01-06T10:46:06;8.45;;;5.97;;
23155;SDS011;11746;50.876;4.246;2024-01-06T10:48:35;11.20;;;6.68;;
23155;SDS011;11746;50.876;4.246;2024-01-06T10:51:09;11.77;;;6.50;;
23155;SDS011;11746;50.876;4.246;2024-01-06T10:53:36;9.77;;;6.80;;
23155;SDS011;11746;50.876;4.246;2024-01-06T10:56:04;9.95;;;6.55;;
23155;SDS011;11746;50.876;4.246;2024-01-06T10:58:35;12.90;;;6.40;;
23155;SDS011;11746;50.876;4.246;2024-01-06T11:01:08;11.07;;;7.10;;
23155;SDS011;11746;50.876;4.246;2024-01-06T11:03:39;12.07;;;7.00;;
23155;SDS011;11746;50.876;4.246;2024-01-06T11:06:07;12.63;;;7.47;;
23155;SDS011;11746;50.876;4.246;2024-01-06T11:08:52;11.05;;;7.78;;
23155;SDS011;11746;50.876;4.246;2024-01-06T11:11:29;11.68;;;7.43;;
23155;SDS011;11746;50.876;4.246;2024-01-06T11:14:16;11.82;;;7.72;;
23155;SDS011;11746;50.876;4.246;2024-01-06T11:16:45;10.48;;;7.68;;
23155;SDS011;11746;50.876;4.246;2024-01-06T11:24:48;12.77;;;7.32;;
23155;SDS011;11746;50.876;4.246;2024-01-06T11:27:33;9.73;;;7.20;;
23155;SDS011;11746;50.876;4.246;2024-01-06T11:30:02;12.27;;;7.72;;
23155;SDS011;11746;50.876;4.246;2024-01-06T11:32:34;10.52;;;7.25;;
23155;SDS011;11746;50.876;4.246;2024-01-06T11:35:07;8.95;;;7.13;;
23155;SDS011;11746;50.876;4.246;2024-01-06T11:40:08;9.98;;;6.97;;
23155;SDS011;11746;50.876;4.246;2024-01-06T11:42:46;9.18;;;6.53;;
23155;SDS011;11746;50.876;4.246;2024-01-06T11:45:13;9.40;;;6.57;;
23155;SDS011;11746;50.876;4.246;2024-01-06T11:47:46;9.07;;;6.68;;
23155;SDS011;11746;50.876;4.246;2024-01-06T11:50:15;9.00;;;7.00;;
23155;SDS011;11746;50.876;4.246;2024-01-06T11:52:42;12.23;;;7.18;;
23155;SDS011;11746;50.876;4.246;2024-01-06T11:55:07;10.23;;;6.50;;
23155;SDS011;11746;50.876;4.246;2024-01-06T11:57:38;10.77;;;6.57;;
23155;SDS011;11746;50.876;4.246;2024-01-06T12:00:04;10.50;;;7.15;;
23155;SDS011;11746;50.876;4.246;2024-01-06T12:02:33;8.93;;;6.20;;
23155;SDS011;11746;50.876;4.246;2024-01-06T12:05:02;8.77;;;6.28;;
23155;SDS011;11746;50.876;4.246;2024-01-06T12:07:31;8.70;;;6.45;;
23155;SDS011;11746;50.876;4.246;2024-01-06T12:10:02;9.82;;;6.80;;
23155;SDS011;11746;50.876;4.246;2024-01-06T12:12:28;9.13;;;7.00;;
23155;SDS011;11746;50.876;4.246;2024-01-06T12:14:54;9.05;;;6.68;;
23155;SDS011;11746;50.876;4.246;2024-01-06T12:17:22;8.93;;;6.63;;
23155;SDS011;11746;50.876;4.246;2024-01-06T12:19:56;10.93;;;6.40;;
23155;SDS011;11746;50.876;4.246;2024-01-06T12:22:22;10.80;;;6.85;;
23155;SDS011;11746;50.876;4.246;2024-01-06T12:24:51;8.82;;;6.13;;
23155;SDS011;11746;50.876;4.246;2024-01-06T12:27:19;8.00;;;6.03;;
23155;SDS011;11746;50.876;4.246;2024-01-06T12:29:46;9.30;;;6.10;;
23155;SDS011;11746;50.876;4.246;2024-01-06T12:32:14;10.82;;;6.20;;
23155;SDS011;11746;50.876;4.246;2024-01-06T12:34:40;9.27;;;6.13;;
23155;SDS011;11746;50.876;4.246;2024-01-06T12:37:05;7.85;;;5.70;;
23155;SDS011;11746;50.876;4.246;2024-01-06T12:39:32;7.72;;;5.88;;
23155;SDS011;11746;50.876;4.246;2024-01-06T12:41:58;9.77;;;6.55;;
23155;SDS011;11746;50.876;4.246;2024-01-06T12:44:28;8.77;;;5.82;;
23155;SDS011;11746;50.876;4.246;2024-01-06T12:47:04;9.43;;;6.18;;
23155;SDS011;11746;50.876;4.246;2024-01-06T12:49:32;7.22;;;5.88;;
23155;SDS011;11746;50.876;4.246;2024-01-06T12:52:00;8.15;;;5.60;;
23155;SDS011;11746;50.876;4.246;2024-01-06T12:54:25;6.68;;;5.30;;
23155;SDS011;11746;50.876;4.246;2024-01-06T12:56:51;8.30;;;5.95;;
23155;SDS011;11746;50.876;4.246;2024-01-06T12:59:17;9.20;;;6.13;;
23155;SDS011;11746;50.876;4.246;2024-01-06T13:01:43;7.47;;;5.40;;
23155;SDS011;11746;50.876;4.246;2024-01-06T13:04:12;6.97;;;5.15;;
23155;SDS011;11746;50.876;4.246;2024-01-06T13:06:40;7.15;;;5.53;;
23155;SDS011;11746;50.876;4.246;2024-01-06T13:09:08;6.05;;;4.60;;
23155;SDS011;11746;50.876;4.246;2024-01-06T13:11:37;5.80;;;4.95;;
23155;SDS011;11746;50.876;4.246;2024-01-06T13:14:02;7.32;;;4.50;;
23155;SDS011;11746;50.876;4.246;2024-01-06T13:16:28;6.95;;;4.57;;
23155;SDS011;11746;50.876;4.246;2024-01-06T13:18:54;6.43;;;4.18;;
23155;SDS011;11746;50.876;4.246;2024-01-06T13:21:22;5.07;;;4.47;;
23155;SDS011;11746;50.876;4.246;2024-01-06T13:23:49;4.97;;;4.35;;
23155;SDS011;11746;50.876;4.246;2024-01-06T13:26:14;6.13;;;3.70;;
23155;SDS011;11746;50.876;4.246;2024-01-06T13:28:42;5.78;;;3.88;;
23155;SDS011;11746;50.876;4.246;2024-01-06T13:31:08;4.82;;;3.20;;
23155;SDS011;11746;50.876;4.246;2024-01-06T13:33:35;3.65;;;2.75;;
23155;SDS011;11746;50.876;4.246;2024-01-06T13:36:04;3.85;;;2.42;;
23155;SDS011;11746;50.876;4.246;2024-01-06T13:38:36;4.50;;;2.55;;
23155;SDS011;11746;50.876;4.246;2024-01-06T13:41:02;3.38;;;2.50;;
23155;SDS011;11746;50.876;4.246;2024-01-06T13:43:28;3.90;;;2.03;;
23155;SDS011;11746;50.876;4.246;2024-01-06T13:45:54;2.47;;;1.77;;
23155;SDS011;11746;50.876;4.246;2024-01-06T13:48:24;2.92;;;2.25;;
23155;SDS011;11746;50.876;4.246;2024-01-06T13:50:50;4.90;;;2.65;;
23155;SDS011;11746;50.876;4.246;2024-01-06T13:53:15;7.10;;;4.10;;
23155;SDS011;11746;50.876;4.246;2024-01-06T13:55:46;7.55;;;4.65;;
23155;SDS011;11746;50.876;4.246;2024-01-06T13:58:14;5.97;;;3.80;;
23155;SDS011;11746;50.876;4.246;2024-01-06T14:00:42;6.15;;;3.53;;
23155;SDS011;11746;50.876;4.246;2024-01-06T14:03:09;4.78;;;2.65;;
23155;SDS011;11746;50.876;4.246;2024-01-06T14:05:37;6.68;;;3.05;;
23155;SDS011;11746;50.876;4.246;2024-01-06T14:08:03;4.43;;;2.80;;
23155;SDS011;11746;50.876;4.246;2024-01-06T14:10:31;3.17;;;2.10;;
23155;SDS011;11746;50.876;4.246;2024-01-06T14:12:59;2.88;;;2.20;;
23155;SDS011;11746;50.876;4.246;2024-01-06T14:15:25;1.98;;;1.77;;
23155;SDS011;11746;50.876;4.246;2024-01-06T14:17:54;3.38;;;2.42;;
23155;SDS011;11746;50.876;4.246;2024-01-06T14:20:22;4.00;;;2.53;;
23155;SDS011;11746;50.876;4.246;2024-01-06T14:22:53;3.17;;;2.42;;
23155;SDS011;11746;50.876;4.246;2024-01-06T14:25:18;3.88;;;2.85;;
23155;SDS011;11746;50.876;4.246;2024-01-06T14:27:46;4.60;;;2.53;;
23155;SDS011;11746;50.876;4.246;2024-01-06T14:30:15;3.33;;;2.15;;
23155;SDS011;11746;50.876;4.246;2024-01-06T14:32:40;3.42;;;2.20;;
23155;SDS011;11746;50.876;4.246;2024-01-06T14:35:08;4.30;;;2.50;;
23155;SDS011;11746;50.876;4.246;2024-01-06T14:37:39;3.85;;;2.60;;
23155;SDS011;11746;50.876;4.246;2024-01-06T14:40:06;8.82;;;3.13;;
23155;SDS011;11746;50.876;4.246;2024-01-06T14:42:34;8.77;;;3.58;;
23155;SDS011;11746;50.876;4.246;2024-01-06T14:45:01;6.53;;;2.85;;
23155;SDS011;11746;50.876;4.246;2024-01-06T14:47:29;5.30;;;2.90;;
23155;SDS011;11746;50.876;4.246;2024-01-06T14:49:57;4.47;;;2.83;;
23155;SDS011;11746;50.876;4.246;2024-01-06T14:52:23;5.35;;;3.05;;